< < Back
Terminal Aerodrome Forecast


Current Version              Previous Versions:   1  2  3  4  5  6  7  8  9  

Terminal Aerodrome Forecast

483
FTUS44 KHUN 011126
TAFHSV
TAF
KHSV 011126Z 0112/0212 VRB03KT P6SM SCT090 BKN180
     FM011800 12005KT P6SM VCSH SCT040 BKN090
     FM020000 VRB03KT P6SM SCT070 BKN120
     FM021100 14005KT P6SM VCTS SCT040CB BKN080=

Latest METAR

086
SAUS80 KWBC 011600 RRH
MTRHSV
METAR KHSV 011553Z 11003KT 10SM BKN020 BKN160 26/19 A3009 RMK AO2 SLP181
T02560189


USA.gov is the U.S. government's official web portal to all federal, state and local government web resources and services.